PWSweather.com
Personal Weather Stations
Station Observations
KTXHOUST78
First Montrose Commons, Houston, TX 77006

First Montrose CommonsHouston, TX 77006

Lat: 29.7359886, Lon: -95.3870926

Elevation: 50

Station Type: Texas Weather Instruments WR-25

Latest ConditionsUpdated 6:00:12 PM CDT Wednesday, Oct 16, 2019
Currently Today's Max Today's Min Today's Average
Temperature 65.0°F18.3°C 80.0°F26.7°C 64.0°F17.8°C 71.9°F22.2°C
Dew Point 62.3°F16.8°C 76.5°F24.7°C 62.3°F16.8°C 70.8°F21.6°C
Winds 5.0 mph NNW8.0 kmh NNW 13.0 mph -20.9 kmh - - 2.9 mph 4.7 kmh
Wind Gusts 6.0 mph9.7 kmh 14.0 mph22.5 kmh - -
Humidity 91% 100% 87% 96%
Pressure 29.92 in1013.2 mb 30.01 in1016.3 mb 29.85 in1010.8 mb -
Hour Temp Dew Point Humidity Winds Wind Gusts Pressure Precip Precip Rate Daily Precip Total
06:00 PM 65.0°F18.3°C 62.3°F16.8°C 91% 5.0 mph NNW8.0 kmh NNW 6.0 mph9.7 kmh 29.92 in1013.2 mb 0.00 in0.0 mm 0.00 in0.0 mm 0.63 in16.0 mm
05:50 PM 65.0°F18.3°C 62.6°F17.0°C 92% 3.0 mph NNW4.8 kmh NNW 3.0 mph4.8 kmh 29.93 in1013.5 mb 0.00 in0.0 mm 0.00 in0.0 mm 0.63 in16.0 mm
05:40 PM 65.0°F18.3°C 62.9°F17.2°C 93% 5.0 mph NNE8.0 kmh NNE 6.0 mph9.7 kmh 29.93 in1013.5 mb 0.00 in0.0 mm 0.00 in0.0 mm 0.63 in16.0 mm
05:30 PM 65.0°F18.3°C 63.2°F17.3°C 94% 4.0 mph ENE6.4 kmh ENE 4.0 mph6.4 kmh 29.93 in1013.5 mb 0.00 in0.0 mm 0.00 in0.0 mm 0.63 in16.0 mm
05:20 PM 65.0°F18.3°C 63.2°F17.3°C 94% 2.0 mph WNW3.2 kmh WNW 5.0 mph8.0 kmh 29.94 in1013.9 mb 0.00 in0.0 mm 0.00 in0.0 mm 0.63 in16.0 mm
05:10 PM 65.0°F18.3°C 63.2°F17.3°C 94% 3.0 mph NW4.8 kmh NW 4.0 mph6.4 kmh 29.94 in1013.9 mb 0.00 in0.0 mm 0.00 in0.0 mm 0.63 in16.0 mm
05:00 PM 65.0°F18.3°C 63.5°F17.5°C 95% 3.0 mph NNE4.8 kmh NNE 5.0 mph8.0 kmh 29.95 in1014.2 mb 0.00 in0.0 mm 0.00 in0.0 mm 0.63 in16.0 mm
04:50 PM 65.0°F18.3°C 63.5°F17.5°C 95% 1.0 mph NNE1.6 kmh NNE 3.0 mph4.8 kmh 29.95 in1014.2 mb 0.00 in0.0 mm 0.00 in0.0 mm 0.63 in16.0 mm
04:40 PM 65.0°F18.3°C 63.8°F17.7°C 96% 3.0 mph WNW4.8 kmh WNW 4.0 mph6.4 kmh 29.95 in1014.2 mb 0.00 in0.0 mm 0.00 in0.0 mm 0.63 in16.0 mm
04:30 PM 65.0°F18.3°C 63.8°F17.7°C 96% 6.0 mph NNW9.7 kmh NNW 7.0 mph11.3 kmh 29.95 in1014.2 mb 0.00 in0.0 mm 0.00 in0.0 mm 0.63 in16.0 mm
04:20 PM 65.0°F18.3°C 63.8°F17.7°C 96% 3.0 mph NNE4.8 kmh NNE 6.0 mph9.7 kmh 29.96 in1014.6 mb 0.00 in0.0 mm 0.00 in0.0 mm 0.63 in16.0 mm
04:10 PM 65.0°F18.3°C 64.1°F17.8°C 97% 3.0 mph NNW4.8 kmh NNW 8.0 mph12.9 kmh 29.96 in1014.6 mb 0.00 in0.0 mm 0.00 in0.0 mm 0.63 in16.0 mm
04:00 PM 65.0°F18.3°C 64.1°F17.8°C 97% 6.0 mph NE9.7 kmh NE 11.0 mph17.7 kmh 29.96 in1014.6 mb 0.00 in0.0 mm 0.00 in0.0 mm 0.63 in16.0 mm
03:50 PM 65.0°F18.3°C 64.1°F17.8°C 97% 6.0 mph NE9.7 kmh NE 9.0 mph14.5 kmh 29.97 in1014.9 mb 0.00 in0.0 mm 0.00 in0.0 mm 0.63 in16.0 mm
03:40 PM 65.0°F18.3°C 64.4°F18.0°C 98% 1.0 mph NNE1.6 kmh NNE 2.0 mph3.2 kmh 29.98 in1015.2 mb 0.00 in0.0 mm 0.00 in0.0 mm 0.63 in16.0 mm
03:30 PM 65.0°F18.3°C 64.4°F18.0°C 98% 3.0 mph WNW4.8 kmh WNW 7.0 mph11.3 kmh 29.98 in1015.2 mb 0.00 in0.0 mm 0.00 in0.0 mm 0.63 in16.0 mm
03:20 PM 64.0°F17.8°C 63.7°F17.6°C 99% 6.0 mph NNE9.7 kmh NNE 7.0 mph11.3 kmh 29.98 in1015.2 mb 0.00 in0.0 mm 0.00 in0.0 mm 0.63 in16.0 mm
03:10 PM 64.0°F17.8°C 63.7°F17.6°C 99% 3.0 mph E4.8 kmh E 4.0 mph6.4 kmh 29.98 in1015.2 mb 0.00 in0.0 mm 0.00 in0.0 mm 0.63 in16.0 mm
03:00 PM 64.0°F17.8°C 63.7°F17.6°C 99% 2.0 mph NNE3.2 kmh NNE 9.0 mph14.5 kmh 29.98 in1015.2 mb 0.00 in0.0 mm 0.00 in0.0 mm 0.63 in16.0 mm
02:50 PM 64.0°F17.8°C 63.7°F17.6°C 99% 3.0 mph NW4.8 kmh NW 7.0 mph11.3 kmh 29.99 in1015.6 mb 0.00 in0.0 mm 0.00 in0.0 mm 0.63 in16.0 mm
02:40 PM 64.0°F17.8°C 63.7°F17.6°C 99% 2.0 mph NNE3.2 kmh NNE 4.0 mph6.4 kmh 30.00 in1015.9 mb 0.00 in0.0 mm 0.00 in0.0 mm 0.63 in16.0 mm
02:30 PM 64.0°F17.8°C 63.7°F17.6°C 99% 5.0 mph ENE8.0 kmh ENE 8.0 mph12.9 kmh 30.00 in1015.9 mb 0.00 in0.0 mm 0.00 in0.0 mm 0.63 in16.0 mm
02:20 PM 65.0°F18.3°C 64.7°F18.2°C 99% 5.0 mph NNE8.0 kmh NNE 13.0 mph20.9 kmh 29.99 in1015.6 mb 0.00 in0.0 mm 0.00 in0.0 mm 0.63 in16.0 mm
02:10 PM 65.0°F18.3°C 65.0°F18.3°C 100% 3.0 mph NE4.8 kmh NE 3.0 mph4.8 kmh 30.00 in1015.9 mb 0.00 in0.0 mm 0.00 in0.0 mm 0.63 in16.0 mm
02:00 PM 65.0°F18.3°C 65.0°F18.3°C 100% 3.0 mph NE4.8 kmh NE 5.0 mph8.0 kmh 30.00 in1015.9 mb 0.00 in0.0 mm 0.00 in0.0 mm 0.63 in16.0 mm
01:50 PM 65.0°F18.3°C 65.0°F18.3°C 100% 1.0 mph NNE1.6 kmh NNE 2.0 mph3.2 kmh 29.99 in1015.6 mb 0.00 in0.0 mm 0.00 in0.0 mm 0.63 in16.0 mm
01:40 PM 65.0°F18.3°C 64.7°F18.2°C 99% 10.0 mph NNE16.1 kmh NNE 10.0 mph16.1 kmh 29.98 in1015.2 mb 0.00 in0.0 mm 0.00 in0.0 mm 0.63 in16.0 mm
01:30 PM 66.0°F18.9°C 65.7°F18.7°C 99% 3.0 mph NE4.8 kmh NE 6.0 mph9.7 kmh 29.98 in1015.2 mb 0.00 in0.0 mm 0.00 in0.0 mm 0.63 in16.0 mm
01:20 PM 67.0°F19.4°C 66.4°F19.1°C 98% 5.0 mph 8.0 kmh 7.0 mph11.3 kmh 29.98 in1015.2 mb 0.00 in0.0 mm 0.00 in0.0 mm 0.63 in16.0 mm
01:10 PM 68.0°F20.0°C 67.7°F19.8°C 99% 2.0 mph 3.2 kmh 3.0 mph4.8 kmh 29.99 in1015.6 mb 0.00 in0.0 mm 0.00 in0.0 mm 0.63 in16.0 mm
01:00 PM 68.0°F20.0°C 67.7°F19.8°C 99% 1.0 mph NE1.6 kmh NE 3.0 mph4.8 kmh 29.98 in1015.2 mb 0.00 in0.0 mm 0.00 in0.0 mm 0.63 in16.0 mm
12:50 PM 69.0°F20.6°C 68.7°F20.4°C 99% 6.0 mph NNE9.7 kmh NNE 9.0 mph14.5 kmh 29.98 in1015.2 mb 0.00 in0.0 mm 0.00 in0.0 mm 0.63 in16.0 mm
12:40 PM 70.0°F21.1°C 69.7°F20.9°C 99% 3.0 mph NE4.8 kmh NE 5.0 mph8.0 kmh 29.97 in1014.9 mb 0.00 in0.0 mm 0.00 in0.0 mm 0.63 in16.0 mm
12:30 PM 71.0°F21.7°C 70.7°F21.5°C 99% 6.0 mph WNW9.7 kmh WNW 8.0 mph12.9 kmh 29.97 in1014.9 mb 0.01 in0.3 mm 0.00 in0.0 mm 0.63 in16.0 mm
12:20 PM 72.0°F22.2°C 72.0°F22.2°C 100% 4.0 mph NE6.4 kmh NE 5.0 mph8.0 kmh 29.97 in1014.9 mb 0.01 in0.3 mm 0.00 in0.0 mm 0.63 in16.0 mm
12:10 PM 72.0°F22.2°C 72.0°F22.2°C 100% 8.0 mph 12.9 kmh 9.0 mph14.5 kmh 29.97 in1014.9 mb 0.01 in0.3 mm 0.00 in0.0 mm 0.63 in16.0 mm
12:00 PM 72.0°F22.2°C 72.0°F22.2°C 100% 6.0 mph NNE9.7 kmh NNE 6.0 mph9.7 kmh 29.96 in1014.6 mb 0.02 in0.5 mm 0.00 in0.0 mm 0.63 in16.0 mm
11:50 AM 72.0°F22.2°C 72.0°F22.2°C 100% 5.0 mph ENE8.0 kmh ENE 11.0 mph17.7 kmh 29.96 in1014.6 mb 0.02 in0.5 mm 0.00 in0.0 mm 0.63 in16.0 mm
11:40 AM 72.0°F22.2°C 72.0°F22.2°C 100% 5.0 mph E8.0 kmh E 8.0 mph12.9 kmh 29.97 in1014.9 mb 0.02 in0.5 mm 0.06 in1.5 mm 0.63 in16.0 mm
11:30 AM 72.0°F22.2°C 72.0°F22.2°C 100% 5.0 mph ENE8.0 kmh ENE 5.0 mph8.0 kmh 29.98 in1015.2 mb 0.01 in0.3 mm 0.00 in0.0 mm 0.62 in15.7 mm
11:20 AM 72.0°F22.2°C 72.0°F22.2°C 100% 3.0 mph NE4.8 kmh NE 4.0 mph6.4 kmh 29.99 in1015.6 mb 0.01 in0.3 mm 0.00 in0.0 mm 0.62 in15.7 mm
11:10 AM 73.0°F22.8°C 73.0°F22.8°C 100% 5.0 mph NE8.0 kmh NE 5.0 mph8.0 kmh 30.01 in1016.3 mb 0.01 in0.3 mm 0.00 in0.0 mm 0.62 in15.7 mm
11:00 AM 73.0°F22.8°C 73.0°F22.8°C 100% 3.0 mph NE4.8 kmh NE 5.0 mph8.0 kmh 30.00 in1015.9 mb 0.01 in0.3 mm 0.00 in0.0 mm 0.62 in15.7 mm
10:50 AM 73.0°F22.8°C 73.0°F22.8°C 100% 2.0 mph 3.2 kmh 3.0 mph4.8 kmh 30.00 in1015.9 mb 0.01 in0.3 mm 0.00 in0.0 mm 0.62 in15.7 mm
10:40 AM 73.0°F22.8°C 73.0°F22.8°C 100% 2.0 mph NE3.2 kmh NE 3.0 mph4.8 kmh 29.99 in1015.6 mb 0.01 in0.3 mm 0.00 in0.0 mm 0.62 in15.7 mm
10:30 AM 73.0°F22.8°C 73.0°F22.8°C 100% 3.0 mph NNE4.8 kmh NNE 5.0 mph8.0 kmh 30.01 in1016.3 mb 0.02 in0.5 mm 0.00 in0.0 mm 0.62 in15.7 mm
10:20 AM 73.0°F22.8°C 73.0°F22.8°C 100% 4.0 mph NNE6.4 kmh NNE 5.0 mph8.0 kmh 30.00 in1015.9 mb 0.02 in0.5 mm 0.00 in0.0 mm 0.62 in15.7 mm
10:10 AM 73.0°F22.8°C 73.0°F22.8°C 100% 5.0 mph 8.0 kmh 5.0 mph8.0 kmh 29.99 in1015.6 mb 0.02 in0.5 mm 0.06 in1.5 mm 0.62 in15.7 mm
10:00 AM 73.0°F22.8°C 73.0°F22.8°C 100% 1.0 mph NE1.6 kmh NE 4.0 mph6.4 kmh 29.98 in1015.2 mb 0.01 in0.3 mm 0.00 in0.0 mm 0.61 in15.5 mm
09:50 AM 73.0°F22.8°C 73.0°F22.8°C 100% 3.0 mph NE4.8 kmh NE 3.0 mph4.8 kmh 29.98 in1015.2 mb 0.01 in0.3 mm 0.00 in0.0 mm 0.61 in15.5 mm
09:40 AM 73.0°F22.8°C 73.0°F22.8°C 100% 1.0 mph NE1.6 kmh NE 2.0 mph3.2 kmh 29.98 in1015.2 mb 0.01 in0.3 mm 0.06 in1.5 mm 0.61 in15.5 mm
09:30 AM 73.0°F22.8°C 73.0°F22.8°C 100% 3.0 mph NNW4.8 kmh NNW 3.0 mph4.8 kmh 29.97 in1014.9 mb 0.00 in0.0 mm 0.00 in0.0 mm 0.60 in15.2 mm
09:20 AM 73.0°F22.8°C 73.0°F22.8°C 100% 3.0 mph 4.8 kmh 3.0 mph4.8 kmh 29.97 in1014.9 mb 0.00 in0.0 mm 0.00 in0.0 mm 0.60 in15.2 mm
09:10 AM 73.0°F22.8°C 73.0°F22.8°C 100% 1.0 mph ENE1.6 kmh ENE 5.0 mph8.0 kmh 29.96 in1014.6 mb 0.00 in0.0 mm 0.00 in0.0 mm 0.60 in15.2 mm
09:00 AM 73.0°F22.8°C 73.0°F22.8°C 100% 1.0 mph NNE1.6 kmh NNE 2.0 mph3.2 kmh 29.95 in1014.2 mb 0.00 in0.0 mm 0.00 in0.0 mm 0.60 in15.2 mm
08:50 AM 73.0°F22.8°C 73.0°F22.8°C 100% 2.0 mph NE3.2 kmh NE 3.0 mph4.8 kmh 29.94 in1013.9 mb 0.00 in0.0 mm 0.00 in0.0 mm 0.60 in15.2 mm
08:40 AM 73.0°F22.8°C 73.0°F22.8°C 100% 1.0 mph SE1.6 kmh SE 1.0 mph1.6 kmh 29.93 in1013.5 mb 0.00 in0.0 mm 0.00 in0.0 mm 0.60 in15.2 mm
08:30 AM 72.0°F22.2°C 72.0°F22.2°C 100% 1.0 mph SE1.6 kmh SE 2.0 mph3.2 kmh 29.93 in1013.5 mb 0.00 in0.0 mm 0.00 in0.0 mm 0.60 in15.2 mm
08:20 AM 72.0°F22.2°C 72.0°F22.2°C 100% 1.0 mph SSE1.6 kmh SSE 3.0 mph4.8 kmh 29.93 in1013.5 mb 0.00 in0.0 mm 0.00 in0.0 mm 0.60 in15.2 mm
08:10 AM 72.0°F22.2°C 72.0°F22.2°C 100% 3.0 mph SE4.8 kmh SE 3.0 mph4.8 kmh 29.92 in1013.2 mb 0.00 in0.0 mm 0.00 in0.0 mm 0.60 in15.2 mm
08:00 AM 72.0°F22.2°C 72.0°F22.2°C 100% 1.0 mph ESE1.6 kmh ESE 3.0 mph4.8 kmh 29.91 in1012.9 mb 0.00 in0.0 mm 0.00 in0.0 mm 0.60 in15.2 mm
07:50 AM 72.0°F22.2°C 72.0°F22.2°C 100% 4.0 mph ESE6.4 kmh ESE 6.0 mph9.7 kmh 29.91 in1012.9 mb 0.01 in0.3 mm 0.00 in0.0 mm 0.60 in15.2 mm
07:40 AM 72.0°F22.2°C 72.0°F22.2°C 100% 5.0 mph ENE8.0 kmh ENE 5.0 mph8.0 kmh 29.92 in1013.2 mb 0.01 in0.3 mm 0.00 in0.0 mm 0.60 in15.2 mm
07:30 AM 72.0°F22.2°C 72.0°F22.2°C 100% 3.0 mph SE4.8 kmh SE 3.0 mph4.8 kmh 29.91 in1012.9 mb 0.02 in0.5 mm 0.00 in0.0 mm 0.60 in15.2 mm
07:20 AM 72.0°F22.2°C 72.0°F22.2°C 100% 2.0 mph SE3.2 kmh SE 2.0 mph3.2 kmh 29.91 in1012.9 mb 0.04 in1.0 mm 0.00 in0.0 mm 0.60 in15.2 mm
07:10 AM 72.0°F22.2°C 71.7°F22.1°C 99% 1.0 mph SE1.6 kmh SE 1.0 mph1.6 kmh 29.91 in1012.9 mb 0.08 in2.0 mm 0.00 in0.0 mm 0.60 in15.2 mm
07:00 AM 72.0°F22.2°C 71.7°F22.1°C 99% 2.0 mph SSE3.2 kmh SSE 4.0 mph6.4 kmh 29.92 in1013.2 mb 0.14 in3.6 mm 0.00 in0.0 mm 0.60 in15.2 mm
06:50 AM 72.0°F22.2°C 71.7°F22.1°C 99% 1.0 mph SSE1.6 kmh SSE 2.0 mph3.2 kmh 29.91 in1012.9 mb 0.14 in3.6 mm 0.00 in0.0 mm 0.60 in15.2 mm
06:40 AM 72.0°F22.2°C 72.0°F22.2°C 100% 1.0 mph SSE1.6 kmh SSE 2.0 mph3.2 kmh 29.90 in1012.5 mb 0.14 in3.6 mm 0.06 in1.5 mm 0.60 in15.2 mm
06:30 AM 72.0°F22.2°C 71.7°F22.1°C 99% 1.0 mph SE1.6 kmh SE 1.0 mph1.6 kmh 29.89 in1012.2 mb 0.13 in3.3 mm 0.00 in0.0 mm 0.59 in15.0 mm
06:20 AM 72.0°F22.2°C 71.7°F22.1°C 99% 3.0 mph SSW4.8 kmh SSW 3.0 mph4.8 kmh 29.90 in1012.5 mb 0.19 in4.8 mm 0.00 in0.0 mm 0.59 in15.0 mm
06:10 AM 72.0°F22.2°C 71.4°F21.9°C 98% 1.0 mph S1.6 kmh S 1.0 mph1.6 kmh 29.90 in1012.5 mb 0.25 in6.4 mm 0.00 in0.0 mm 0.59 in15.0 mm
06:00 AM 72.0°F22.2°C 71.1°F21.7°C 97% 3.0 mph ENE4.8 kmh ENE 4.0 mph6.4 kmh 29.90 in1012.5 mb 0.45 in11.4 mm 0.00 in0.0 mm 0.59 in15.0 mm
05:50 AM 72.0°F22.2°C 71.1°F21.7°C 97% 1.0 mph NE1.6 kmh NE 3.0 mph4.8 kmh 29.90 in1012.5 mb 0.53 in13.5 mm 0.00 in0.0 mm 0.59 in15.0 mm
05:40 AM 72.0°F22.2°C 71.4°F21.9°C 98% 1.0 mph NNW1.6 kmh NNW 3.0 mph4.8 kmh 29.89 in1012.2 mb 0.59 in15.0 mm 0.00 in0.0 mm 0.59 in15.0 mm
05:30 AM 72.0°F22.2°C 70.5°F21.4°C 95% 1.0 mph NW1.6 kmh NW 1.0 mph1.6 kmh 29.89 in1012.2 mb 0.59 in15.0 mm 0.42 in10.7 mm 0.59 in15.0 mm
05:20 AM 73.0°F22.8°C 71.2°F21.8°C 94% 3.0 mph NNW4.8 kmh NNW 4.0 mph6.4 kmh 29.88 in1011.9 mb 0.52 in13.2 mm 0.60 in15.2 mm 0.52 in13.2 mm
05:10 AM 74.0°F23.3°C 71.2°F21.8°C 91% 1.0 mph WNW1.6 kmh WNW 4.0 mph6.4 kmh 29.89 in1012.2 mb 0.42 in10.7 mm 1.56 in39.6 mm 0.42 in10.7 mm
05:00 AM 76.0°F24.4°C 73.2°F22.9°C 91% 13.0 mph NNE20.9 kmh NNE 14.0 mph22.5 kmh 29.89 in1012.2 mb 0.16 in4.1 mm 0.12 in3.0 mm 0.16 in4.1 mm
04:50 AM 78.0°F25.6°C 75.8°F24.3°C 93% 7.0 mph NW11.3 kmh NW 7.0 mph11.3 kmh 29.88 in1011.9 mb 0.06 in1.5 mm 0.36 in9.1 mm 0.06 in1.5 mm
04:40 AM 78.0°F25.6°C 76.1°F24.5°C 94% 1.0 mph E1.6 kmh E 1.0 mph1.6 kmh 29.87 in1011.5 mb 0.00 in0.0 mm 0.00 in0.0 mm 0.00 in0.0 mm
04:30 AM 78.0°F25.6°C 76.1°F24.5°C 94% 1.0 mph NW1.6 kmh NW 3.0 mph4.8 kmh 29.86 in1011.2 mb 0.00 in0.0 mm 0.00 in0.0 mm 0.00 in0.0 mm
04:20 AM 78.0°F25.6°C 76.1°F24.5°C 94% 1.0 mph WNW1.6 kmh WNW 3.0 mph4.8 kmh 29.86 in1011.2 mb 0.00 in0.0 mm 0.00 in0.0 mm 0.00 in0.0 mm
04:10 AM 78.0°F25.6°C 76.5°F24.7°C 95% 5.0 mph SW8.0 kmh SW 5.0 mph8.0 kmh 29.85 in1010.8 mb 0.00 in0.0 mm 0.00 in0.0 mm 0.00 in0.0 mm
04:00 AM 78.0°F25.6°C 76.1°F24.5°C 94% 3.0 mph SW4.8 kmh SW 4.0 mph6.4 kmh 29.86 in1011.2 mb 0.00 in0.0 mm 0.00 in0.0 mm 0.00 in0.0 mm
03:50 AM 78.0°F25.6°C 76.1°F24.5°C 94% 1.0 mph W1.6 kmh W 2.0 mph3.2 kmh 29.86 in1011.2 mb 0.00 in0.0 mm 0.00 in0.0 mm 0.00 in0.0 mm
03:40 AM 78.0°F25.6°C 76.1°F24.5°C 94% 1.0 mph WSW1.6 kmh WSW 2.0 mph3.2 kmh 29.86 in1011.2 mb 0.00 in0.0 mm 0.00 in0.0 mm 0.00 in0.0 mm
03:30 AM 78.0°F25.6°C 76.1°F24.5°C 94% 1.0 mph SSW1.6 kmh SSW 3.0 mph4.8 kmh 29.87 in1011.5 mb 0.00 in0.0 mm 0.00 in0.0 mm 0.00 in0.0 mm
03:20 AM 78.0°F25.6°C 76.1°F24.5°C 94% Calm Calm 1.0 mph1.6 kmh 29.87 in1011.5 mb 0.00 in0.0 mm 0.00 in0.0 mm 0.00 in0.0 mm
03:10 AM 78.0°F25.6°C 76.1°F24.5°C 94% 1.0 mph W1.6 kmh W 2.0 mph3.2 kmh 29.88 in1011.9 mb 0.00 in0.0 mm 0.00 in0.0 mm 0.00 in0.0 mm
03:00 AM 78.0°F25.6°C 75.8°F24.3°C 93% 1.0 mph WNW1.6 kmh WNW 1.0 mph1.6 kmh 29.87 in1011.5 mb 0.00 in0.0 mm 0.00 in0.0 mm 0.00 in0.0 mm
02:50 AM 78.0°F25.6°C 75.8°F24.3°C 93% 2.0 mph W3.2 kmh W 3.0 mph4.8 kmh 29.88 in1011.9 mb 0.00 in0.0 mm 0.00 in0.0 mm 0.00 in0.0 mm
02:40 AM 78.0°F25.6°C 75.5°F24.2°C 92% 1.0 mph WNW1.6 kmh WNW 1.0 mph1.6 kmh 29.88 in1011.9 mb 0.00 in0.0 mm 0.00 in0.0 mm 0.00 in0.0 mm
02:30 AM 78.0°F25.6°C 75.2°F24.0°C 91% 1.0 mph W1.6 kmh W 3.0 mph4.8 kmh 29.88 in1011.9 mb 0.00 in0.0 mm 0.00 in0.0 mm 0.00 in0.0 mm
02:20 AM 78.0°F25.6°C 75.2°F24.0°C 91% 1.0 mph WSW1.6 kmh WSW 1.0 mph1.6 kmh 29.88 in1011.9 mb 0.00 in0.0 mm 0.00 in0.0 mm 0.00 in0.0 mm
02:10 AM 78.0°F25.6°C 75.2°F24.0°C 91% 1.0 mph SSW1.6 kmh SSW 4.0 mph6.4 kmh 29.87 in1011.5 mb 0.00 in0.0 mm 0.00 in0.0 mm 0.00 in0.0 mm
02:00 AM 78.0°F25.6°C 75.2°F24.0°C 91% 1.0 mph S1.6 kmh S 3.0 mph4.8 kmh 29.87 in1011.5 mb 0.00 in0.0 mm 0.00 in0.0 mm 0.00 in0.0 mm
01:50 AM 78.0°F25.6°C 74.8°F23.8°C 90% 3.0 mph SW4.8 kmh SW 3.0 mph4.8 kmh 29.87 in1011.5 mb 0.00 in0.0 mm 0.00 in0.0 mm 0.00 in0.0 mm
01:40 AM 78.0°F25.6°C 74.8°F23.8°C 90% 2.0 mph SW3.2 kmh SW 3.0 mph4.8 kmh 29.87 in1011.5 mb 0.00 in0.0 mm 0.00 in0.0 mm 0.00 in0.0 mm
01:30 AM 78.0°F25.6°C 74.5°F23.6°C 89% 1.0 mph SW1.6 kmh SW 1.0 mph1.6 kmh 29.87 in1011.5 mb 0.00 in0.0 mm 0.00 in0.0 mm 0.00 in0.0 mm
01:20 AM 79.0°F26.1°C 75.5°F24.2°C 89% 3.0 mph WSW4.8 kmh WSW 3.0 mph4.8 kmh 29.88 in1011.9 mb 0.00 in0.0 mm 0.00 in0.0 mm 0.00 in0.0 mm
01:10 AM 79.0°F26.1°C 75.5°F24.2°C 89% 1.0 mph WNW1.6 kmh WNW 3.0 mph4.8 kmh 29.88 in1011.9 mb 0.00 in0.0 mm 0.00 in0.0 mm 0.00 in0.0 mm
01:00 AM 79.0°F26.1°C 75.5°F24.2°C 89% 4.0 mph SSW6.4 kmh SSW 4.0 mph6.4 kmh 29.88 in1011.9 mb 0.00 in0.0 mm 0.00 in0.0 mm 0.00 in0.0 mm
12:50 AM 79.0°F26.1°C 75.5°F24.2°C 89% 4.0 mph SW6.4 kmh SW 5.0 mph8.0 kmh 29.89 in1012.2 mb 0.00 in0.0 mm 0.00 in0.0 mm 0.00 in0.0 mm
12:40 AM 79.0°F26.1°C 75.2°F24.0°C 88% 1.0 mph W1.6 kmh W 2.0 mph3.2 kmh 29.89 in1012.2 mb 0.00 in0.0 mm 0.00 in0.0 mm 0.00 in0.0 mm
12:30 AM 79.0°F26.1°C 74.8°F23.8°C 87% 2.0 mph SSW3.2 kmh SSW 5.0 mph8.0 kmh 29.90 in1012.5 mb 0.00 in0.0 mm 0.00 in0.0 mm 0.00 in0.0 mm
12:20 AM 79.0°F26.1°C 74.8°F23.8°C 87% 3.0 mph W4.8 kmh W 4.0 mph6.4 kmh 29.90 in1012.5 mb 0.00 in0.0 mm 0.00 in0.0 mm 0.00 in0.0 mm
12:10 AM 79.0°F26.1°C 75.2°F24.0°C 88% 4.0 mph SW6.4 kmh SW 5.0 mph8.0 kmh 29.91 in1012.9 mb 0.00 in0.0 mm 0.00 in0.0 mm 0.00 in0.0 mm
12:00 AM 80.0°F26.7°C 75.8°F24.3°C 87% 3.0 mph SW4.8 kmh SW 3.0 mph4.8 kmh 29.91 in1012.9 mb 0.00 in0.0 mm 0.00 in0.0 mm 0.00 in0.0 mm